This is the latest recevied weather packets stored in our database for station/object K8RRT. If no packets are shown the sender has not sent any weather packets the latest 10 day(s).
| Time | Temp. | Humidity | Pressure | Rain* | Wind** | Luminosity | Snow |
|---|---|---|---|---|---|---|---|
| 1788121275 | 26.11° C | 88% | 1015.4 hPa | 0 mm | - | 217 W/m² | - |
| 1788120974 | 26.11° C | 90% | 1015.5 hPa | 0 mm | - | 256 W/m² | - |
| 1788120669 | 25.56° C | 92% | 1015.4 hPa | 0 mm | - | 292 W/m² | - |
| 1788120365 | 25.56° C | 92% | 1015.4 hPa | 0 mm | - | 300 W/m² | - |
| 1788120063 | 25.56° C | 92% | 1015.4 hPa | 0 mm | - | 276 W/m² | - |
| 1788119759 | 25° C | 92% | 1015.1 hPa | 0 mm | - | 269 W/m² | - |
| 1788119457 | 24.44° C | 94% | 1015.5 hPa | 0 mm | - | 255 W/m² | - |
| 1788119157 | 23.89° C | 94% | 1015.6 hPa | 0 mm | - | 352 W/m² | - |
| 1788118851 | 23.89° C | 95% | 1015.5 hPa | 0 mm | - | 194 W/m² | - |
| 1788118551 | 23.33° C | 94% | 1015.5 hPa | 1.27 mm | - | 165 W/m² | - |
| 1788118246 | 23.33° C | 97% | 1016 hPa | 1.27 mm | - | 127 W/m² | - |
| 1788117942 | 23.33° C | 96% | 1016.5 hPa | 3.05 mm | - | 101 W/m² | - |
| 1788117642 | 23.33° C | 95% | 1016.9 hPa | 4.83 mm | - | 52 W/m² | - |
| 1788117337 | 23.89° C | 93% | 1016.7 hPa | 1.78 mm | - | 39 W/m² | - |
| 1788117032 | 23.89° C | 90% | 1016.7 hPa | 0 mm | - | 37 W/m² | - |
| 1788116727 | 23.89° C | 89% | 1016 hPa | 0 mm | - | 56 W/m² | - |
| 1788116423 | 23.89° C | 89% | 1016.2 hPa | 1.27 mm | - | 69 W/m² | - |
| 1788116116 | 25° C | 90% | 1016 hPa | 1.27 mm | - | 76 W/m² | - |
| 1788115812 | 25.56° C | 88% | 1016 hPa | 0 mm | - | 73 W/m² | - |
| 1788115511 | 28.89° C | 78% | 1016.1 hPa | 0 mm | - | 59 W/m² | - |
| 1788115205 | 30.56° C | 70% | 1015.9 hPa | 0 mm | - | 72 W/m² | - |
| 1788114900 | 31.11° C | 68% | 1015.9 hPa | 0 mm | - | 152 W/m² | - |
| 1788114595 | 32.22° C | 66% | 1016.1 hPa | 0 mm | - | 245 W/m² | - |
| 1788114291 | 31.67° C | 67% | 1016.1 hPa | 0 mm | - | 870 W/m² | - |
| 1788113987 | 31.67° C | 66% | 1016.1 hPa | 0 mm | - | 776 W/m² | - |
* Rain latest hour (hover to see other rain measurements)
** Current wind speed in m/s (hover to see current wind gust speed)